Time;durP1;ratioP1;P1;durP2;ratioP2;P2;SDS_P1;SDS_P2;PMS_P1;PMS_P2;Temp;Humidity;BMP_temperature;BMP_pressure;BME280_temperature;BME280_humidity;BME280_pressure;Samples;Min_cycle;Max_cycle;Signal;HPM_P1;HPM_P2
2021/05/07 00:02:09;;;;;;;10.40;6.67;;;;;;;;;;5062768;28;20756;-71
2021/05/07 00:04:34;;;;;;;13.70;7.13;;;;;;;;;;5057829;28;20208;-71
2021/05/07 00:07:00;;;;;;;12.33;6.93;;;;;;;;;;5064338;28;20214;-70
2021/05/07 00:09:27;;;;;;;9.30;7.10;;;;;;;;;;5058583;28;20688;-70
2021/05/07 00:11:52;;;;;;;10.53;7.30;;;;;;;;;;5062980;28;20192;-70
2021/05/07 00:14:18;;;;;;;10.77;8.07;;;;;;;;;;5060568;28;20443;-70
2021/05/07 00:16:43;;;;;;;7.83;6.57;;;;;;;;;;5065828;28;20173;-70
2021/05/07 00:19:08;;;;;;;11.53;7.00;;;;;;;;;;5055686;28;20663;-70
2021/05/07 00:21:34;;;;;;;9.33;8.03;;;;;;;;;;5064790;28;20207;-71
2021/05/07 00:23:59;;;;;;;11.17;7.90;;;;;;;;;;5056769;28;20679;-71
2021/05/07 00:26:24;;;;;;;9.73;7.60;;;;;;;;;;5070235;28;20260;-70
2021/05/07 00:28:49;;;;;;;11.63;6.90;;;;;;;;;;5055679;28;20182;-70
2021/05/07 00:31:16;;;;;;;9.57;7.50;;;;;;;;;;5068637;28;20498;-70
2021/05/07 00:33:42;;;;;;;11.17;7.93;;;;;;;;;;5060733;28;20200;-70
2021/05/07 00:36:07;;;;;;;11.37;7.67;;;;;;;;;;5061807;28;20616;-71
2021/05/07 00:38:32;;;;;;;9.90;7.53;;;;;;;;;;5061210;28;20177;-70
2021/05/07 00:40:57;;;;;;;12.80;8.13;;;;;;;;;;5062076;28;20211;-70
2021/05/07 00:43:22;;;;;;;12.10;7.40;;;;;;;;;;5056474;28;20601;-70
2021/05/07 00:45:48;;;;;;;12.93;8.43;;;;;;;;;;5066239;28;20173;-69
2021/05/07 00:48:15;;;;;;;14.73;8.20;;;;;;;;;;5062508;28;20174;-71
2021/05/07 00:50:43;;;;;;;9.77;7.33;;;;;;;;;;5068109;28;20677;-71
2021/05/07 00:53:08;;;;;;;8.20;6.87;;;;;;;;;;5053553;28;20718;-70
2021/05/07 00:55:35;;;;;;;11.47;8.13;;;;;;;;;;5062920;28;20196;-71
2021/05/07 00:58:00;;;;;;;23.07;8.50;;;;;;;;;;5067389;28;20692;-71
2021/05/07 01:00:26;;;;;;;10.33;7.27;;;;;;;;;;5061979;28;20189;-69
2021/05/07 01:02:52;;;;;;;11.03;7.07;;;;;;;;;;5065329;28;20565;-70
2021/05/07 01:05:17;;;;;;;13.57;8.07;;;;;;;;;;5057721;28;20177;-70
2021/05/07 01:07:42;;;;;;;10.47;7.80;;;;;;;;;;5063800;28;20623;-69
2021/05/07 01:10:09;;;;;;;12.13;8.10;;;;;;;;;;5063526;28;20188;-71
2021/05/07 01:12:38;;;;;;;7.83;7.03;;;;;;;;;;5064967;28;20679;-69
2021/05/07 01:15:08;;;;;;;9.50;7.03;;;;;;;;;;5066612;28;20227;-71
2021/05/07 01:17:37;;;;;;;13.60;8.80;;;;;;;;;;5069923;28;20274;-70
2021/05/07 01:20:05;;;;;;;10.53;7.67;;;;;;;;;;5060734;28;20204;-71
2021/05/07 01:22:30;;;;;;;12.17;8.33;;;;;;;;;;5069700;28;20197;-70
2021/05/07 01:24:56;;;;;;;16.50;9.43;;;;;;;;;;5065053;28;20211;-70
2021/05/07 01:27:21;;;;;;;12.37;8.57;;;;;;;;;;5061247;28;20650;-69
2021/05/07 01:29:46;;;;;;;18.13;9.13;;;;;;;;;;5055340;28;20192;-70
2021/05/07 01:32:11;;;;;;;12.40;9.63;;;;;;;;;;5067033;28;20204;-70
2021/05/07 01:34:36;;;;;;;14.57;10.90;;;;;;;;;;5061349;28;20256;-71
2021/05/07 01:37:02;;;;;;;13.43;10.60;;;;;;;;;;5062675;28;20290;-70
2021/05/07 01:39:27;;;;;;;14.43;10.00;;;;;;;;;;5054985;28;20186;-70
2021/05/07 01:41:52;;;;;;;11.43;9.67;;;;;;;;;;5061325;28;20245;-70
2021/05/07 01:44:17;;;;;;;14.80;11.23;;;;;;;;;;5065961;28;20216;-72
2021/05/07 01:46:42;;;;;;;16.27;11.17;;;;;;;;;;5061202;28;20191;-70
2021/05/07 01:49:07;;;;;;;15.13;12.13;;;;;;;;;;5055939;28;20220;-70
2021/05/07 01:51:33;;;;;;;15.20;11.53;;;;;;;;;;5057704;28;20670;-69
2021/05/07 01:53:58;;;;;;;17.37;13.70;;;;;;;;;;5054537;28;20182;-70
2021/05/07 01:56:26;;;;;;;15.40;12.30;;;;;;;;;;5069124;28;20234;-69
2021/05/07 01:58:51;;;;;;;16.57;13.70;;;;;;;;;;5052208;28;20184;-72
2021/05/07 02:01:16;;;;;;;24.67;16.30;;;;;;;;;;5063864;28;20284;-70
2021/05/07 02:03:41;;;;;;;19.33;14.93;;;;;;;;;;5054702;28;20236;-70
2021/05/07 02:06:07;;;;;;;19.37;14.53;;;;;;;;;;5059815;28;20181;-71
2021/05/07 02:08:32;;;;;;;16.80;13.87;;;;;;;;;;5060287;28;20272;-70
2021/05/07 02:10:57;;;;;;;21.80;15.73;;;;;;;;;;5059675;28;20200;-69
2021/05/07 02:13:23;;;;;;;20.67;15.50;;;;;;;;;;5055065;28;20648;-70
2021/05/07 02:15:48;;;;;;;19.57;15.03;;;;;;;;;;5061065;28;20177;-71
2021/05/07 02:18:13;;;;;;;19.50;15.37;;;;;;;;;;5060494;28;20177;-70
2021/05/07 02:20:40;;;;;;;19.63;15.27;;;;;;;;;;5060730;28;20181;-70
2021/05/07 02:23:06;;;;;;;16.53;14.30;;;;;;;;;;5067247;28;20678;-71
2021/05/07 02:25:31;;;;;;;19.07;13.93;;;;;;;;;;5063216;28;20176;-70
2021/05/07 02:27:57;;;;;;;18.80;13.40;;;;;;;;;;5056666;28;20173;-70
2021/05/07 02:30:26;;;;;;;17.63;13.03;;;;;;;;;;5058772;28;20180;-70
2021/05/07 02:32:52;;;;;;;15.90;11.90;;;;;;;;;;5065542;28;20465;-70
2021/05/07 02:35:17;;;;;;;19.60;13.07;;;;;;;;;;5061763;28;20551;-71
2021/05/07 02:37:43;;;;;;;17.67;13.20;;;;;;;;;;5062518;28;20779;-70
2021/05/07 02:40:09;;;;;;;14.53;12.30;;;;;;;;;;5058837;28;20642;-70
2021/05/07 02:42:34;;;;;;;18.27;13.87;;;;;;;;;;5063725;28;20193;-70
2021/05/07 02:45:03;;;;;;;20.80;13.83;;;;;;;;;;5064927;28;20207;-71
2021/05/07 02:47:29;;;;;;;20.77;15.73;;;;;;;;;;5060320;28;20177;-71
2021/05/07 02:49:54;;;;;;;19.27;14.67;;;;;;;;;;5052507;28;20174;-71
2021/05/07 02:52:20;;;;;;;17.50;14.60;;;;;;;;;;5055010;28;20620;-71
2021/05/07 02:54:45;;;;;;;16.43;12.10;;;;;;;;;;5060305;28;20177;-70
2021/05/07 02:57:10;;;;;;;15.27;11.47;;;;;;;;;;5054269;28;20264;-70
2021/05/07 02:59:35;;;;;;;13.17;9.90;;;;;;;;;;5065714;28;20192;-71
2021/05/07 03:02:00;;;;;;;12.23;9.83;;;;;;;;;;5060346;28;20208;-71
2021/05/07 03:04:25;;;;;;;13.43;9.57;;;;;;;;;;5055971;28;20483;-71
2021/05/07 03:06:51;;;;;;;9.37;8.07;;;;;;;;;;5050879;28;20189;-70
2021/05/07 03:09:16;;;;;;;6.03;5.37;;;;;;;;;;5052227;28;20715;-72
2021/05/07 03:11:41;;;;;;;6.43;4.83;;;;;;;;;;5055644;28;20194;-70
2021/05/07 03:14:06;;;;;;;9.70;4.13;;;;;;;;;;5052012;28;20182;-72
2021/05/07 03:16:32;;;;;;;6.00;3.40;;;;;;;;;;5051791;28;20181;-72
2021/05/07 03:18:57;;;;;;;4.83;3.37;;;;;;;;;;5057398;28;20670;-71
2021/05/07 03:21:23;;;;;;;3.33;2.50;;;;;;;;;;5057800;28;20326;-73
2021/05/07 03:23:48;;;;;;;3.60;2.40;;;;;;;;;;5057810;28;20231;-71
2021/05/07 03:26:13;;;;;;;3.40;2.47;;;;;;;;;;5061923;28;20561;-71
2021/05/07 03:28:39;;;;;;;2.67;2.00;;;;;;;;;;5061311;28;20185;-73
2021/05/07 03:31:05;;;;;;;4.40;2.50;;;;;;;;;;5059334;28;20203;-73
2021/05/07 03:33:30;;;;;;;2.60;2.13;;;;;;;;;;5056383;28;20169;-72
2021/05/07 03:35:55;;;;;;;3.23;1.93;;;;;;;;;;5060051;28;20189;-73
2021/05/07 03:38:20;;;;;;;3.23;2.33;;;;;;;;;;5064084;28;20242;-72
2021/05/07 03:40:45;;;;;;;4.53;2.27;;;;;;;;;;5060618;28;20208;-74
2021/05/07 03:43:11;;;;;;;3.67;2.20;;;;;;;;;;5066858;28;20204;-73
2021/05/07 03:45:36;;;;;;;1.90;1.80;;;;;;;;;;5068196;28;20173;-74
2021/05/07 03:48:11;;;;;;;3.57;2.20;;;;;;;;;;5062569;28;20195;-73
2021/05/07 03:50:36;;;;;;;2.50;2.10;;;;;;;;;;5059079;28;20169;-74
2021/05/07 03:53:01;;;;;;;4.43;2.03;;;;;;;;;;5054547;28;20211;-74
2021/05/07 03:55:27;;;;;;;2.43;1.83;;;;;;;;;;5064785;28;20203;-74
2021/05/07 03:57:52;;;;;;;2.20;2.00;;;;;;;;;;5059649;28;20177;-74
2021/05/07 04:00:17;;;;;;;2.73;2.00;;;;;;;;;;5057056;28;20182;-71
2021/05/07 04:02:44;;;;;;;3.13;1.93;;;;;;;;;;5061493;28;20206;-73
2021/05/07 04:05:09;;;;;;;3.00;2.20;;;;;;;;;;5061423;28;20704;-73
2021/05/07 04:07:35;;;;;;;2.53;2.33;;;;;;;;;;5063751;28;20177;-72
2021/05/07 04:10:07;;;;;;;3.37;2.30;;;;;;;;;;5052308;28;20601;-72
2021/05/07 04:15:01;;;;;;;3.87;2.70;;;;;;;;;;5062331;28;20247;-72
2021/05/07 04:17:26;;;;;;;2.50;2.30;;;;;;;;;;5068804;28;20212;-71
2021/05/07 04:19:51;;;;;;;3.27;2.70;;;;;;;;;;5062947;28;20197;-70
2021/05/07 04:22:16;;;;;;;3.63;2.43;;;;;;;;;;5072276;28;20258;-71
2021/05/07 04:24:42;;;;;;;3.13;2.57;;;;;;;;;;5068114;28;20202;-71
2021/05/07 04:27:07;;;;;;;5.40;2.70;;;;;;;;;;5071610;28;20238;-72
2021/05/07 04:29:32;;;;;;;3.37;2.50;;;;;;;;;;5066442;28;20254;-72
2021/05/07 04:31:59;;;;;;;4.77;2.80;;;;;;;;;;5068971;28;20196;-72
2021/05/07 04:34:24;;;;;;;2.93;2.63;;;;;;;;;;5058417;28;20541;-72
2021/05/07 04:36:49;;;;;;;4.00;2.90;;;;;;;;;;5063564;28;20242;-71
2021/05/07 04:39:15;;;;;;;3.03;2.73;;;;;;;;;;5065104;28;20186;-72
2021/05/07 04:41:40;;;;;;;3.27;2.90;;;;;;;;;;5063297;28;20261;-72
2021/05/07 04:44:05;;;;;;;3.30;3.00;;;;;;;;;;5062906;28;20213;-71
2021/05/07 04:46:30;;;;;;;5.43;3.10;;;;;;;;;;5068067;28;20189;-72
2021/05/07 04:48:56;;;;;;;4.40;2.63;;;;;;;;;;5061046;28;20256;-72
2021/05/07 04:51:21;;;;;;;3.90;2.93;;;;;;;;;;5065093;28;20200;-71
2021/05/07 04:53:46;;;;;;;3.67;3.37;;;;;;;;;;5058498;28;21084;-71
2021/05/07 04:56:11;;;;;;;3.30;3.00;;;;;;;;;;5061909;28;20540;-71
2021/05/07 04:58:37;;;;;;;3.50;3.20;;;;;;;;;;5065475;28;20634;-71
2021/05/07 05:01:02;;;;;;;3.37;3.07;;;;;;;;;;5060133;28;20209;-71
2021/05/07 05:03:28;;;;;;;4.03;3.60;;;;;;;;;;5049573;28;20544;-69
2021/05/07 05:05:53;;;;;;;3.80;3.40;;;;;;;;;;5061619;28;20639;-72
2021/05/07 05:08:22;;;;;;;4.40;3.40;;;;;;;;;;5059098;28;20181;-71
2021/05/07 05:10:47;;;;;;;3.77;3.13;;;;;;;;;;5064574;28;20306;-70
2021/05/07 05:13:12;;;;;;;3.03;2.73;;;;;;;;;;5063090;28;20276;-71
2021/05/07 05:15:38;;;;;;;3.50;3.20;;;;;;;;;;5059591;28;20170;-71
2021/05/07 05:18:03;;;;;;;4.23;3.27;;;;;;;;;;5061101;28;20177;-72
2021/05/07 05:20:28;;;;;;;4.83;3.20;;;;;;;;;;5066205;28;20177;-72
2021/05/07 05:22:53;;;;;;;4.43;2.93;;;;;;;;;;5052753;28;20196;-70
2021/05/07 05:25:18;;;;;;;3.27;2.97;;;;;;;;;;5056939;28;20214;-72
2021/05/07 05:27:44;;;;;;;4.27;3.87;;;;;;;;;;5055432;28;20203;-71
2021/05/07 05:30:09;;;;;;;4.60;3.67;;;;;;;;;;5058177;28;20215;-70
2021/05/07 05:32:36;;;;;;;5.83;4.23;;;;;;;;;;5057292;28;20224;-69
2021/05/07 05:35:01;;;;;;;4.73;4.17;;;;;;;;;;5055935;28;20185;-71
2021/05/07 05:37:27;;;;;;;5.10;3.73;;;;;;;;;;5057837;28;20181;-71
2021/05/07 05:39:52;;;;;;;5.73;3.90;;;;;;;;;;5056939;28;20678;-70
2021/05/07 05:42:17;;;;;;;4.00;3.60;;;;;;;;;;5060264;28;21647;-71
2021/05/07 05:44:42;;;;;;;4.20;3.80;;;;;;;;;;5054896;28;20701;-72
2021/05/07 05:47:07;;;;;;;3.20;2.90;;;;;;;;;;5062202;28;20217;-71
2021/05/07 05:49:32;;;;;;;3.17;2.87;;;;;;;;;;5062949;28;20677;-71
2021/05/07 05:51:58;;;;;;;3.30;2.60;;;;;;;;;;5067516;28;20203;-70
2021/05/07 05:54:23;;;;;;;2.83;2.50;;;;;;;;;;5061619;28;20190;-71
2021/05/07 05:56:48;;;;;;;2.50;2.10;;;;;;;;;;5065449;28;20169;-69
2021/05/07 05:59:13;;;;;;;2.50;2.30;;;;;;;;;;5062706;28;20223;-70
2021/05/07 06:01:38;;;;;;;2.97;2.60;;;;;;;;;;5068349;28;20197;-70
2021/05/07 06:04:04;;;;;;;3.20;2.90;;;;;;;;;;5059877;28;20287;-70
2021/05/07 06:06:29;;;;;;;2.73;2.10;;;;;;;;;;5057734;28;20182;-70
2021/05/07 06:08:54;;;;;;;5.03;2.57;;;;;;;;;;5053364;28;20185;-70
2021/05/07 06:11:19;;;;;;;2.57;2.20;;;;;;;;;;5052612;28;20250;-70
2021/05/07 06:13:45;;;;;;;2.63;2.17;;;;;;;;;;5052438;28;20182;-70
2021/05/07 06:16:10;;;;;;;2.87;2.30;;;;;;;;;;5053577;28;20180;-70
2021/05/07 06:18:35;;;;;;;3.00;2.40;;;;;;;;;;5057719;28;20185;-70
2021/05/07 06:21:00;;;;;;;2.13;1.70;;;;;;;;;;5070826;28;20176;-71
2021/05/07 06:23:25;;;;;;;2.50;2.10;;;;;;;;;;5057064;28;20240;-69
2021/05/07 06:25:51;;;;;;;2.50;2.30;;;;;;;;;;5051749;28;20216;-71
2021/05/07 06:28:16;;;;;;;3.43;1.93;;;;;;;;;;5052884;28;20658;-70
2021/05/07 06:30:41;;;;;;;2.40;2.00;;;;;;;;;;5053024;28;20173;-70
2021/05/07 06:33:06;;;;;;;3.00;1.87;;;;;;;;;;5054274;28;20300;-69
2021/05/07 06:35:32;;;;;;;2.60;2.20;;;;;;;;;;5052357;28;20181;-69
2021/05/07 06:37:59;;;;;;;1.93;1.83;;;;;;;;;;5055586;28;20238;-69
2021/05/07 06:40:24;;;;;;;2.50;2.27;;;;;;;;;;5053442;28;20185;-68
2021/05/07 06:42:49;;;;;;;2.90;2.30;;;;;;;;;;5063186;28;20205;-70
2021/05/07 06:45:15;;;;;;;2.50;2.30;;;;;;;;;;5062267;28;20206;-69
2021/05/07 06:47:40;;;;;;;2.40;2.20;;;;;;;;;;5061984;28;20603;-70
2021/05/07 06:50:06;;;;;;;2.90;2.60;;;;;;;;;;5061522;28;20186;-68
2021/05/07 06:52:32;;;;;;;4.43;3.40;;;;;;;;;;5057823;28;20193;-69
2021/05/07 06:54:57;;;;;;;5.40;3.67;;;;;;;;;;5064461;28;20187;-70
2021/05/07 06:57:22;;;;;;;6.33;4.33;;;;;;;;;;5061174;28;20521;-69
2021/05/07 06:59:49;;;;;;;4.80;3.93;;;;;;;;;;5061023;28;20227;-70
2021/05/07 07:02:14;;;;;;;4.23;3.77;;;;;;;;;;5051709;28;20208;-70
2021/05/07 07:04:40;;;;;;;3.53;3.23;;;;;;;;;;5048559;28;20216;-70
2021/05/07 07:07:05;;;;;;;3.40;3.10;;;;;;;;;;5048726;28;20173;-70
2021/05/07 07:09:30;;;;;;;4.53;3.20;;;;;;;;;;5053335;28;20570;-70
2021/05/07 07:11:55;;;;;;;4.90;3.90;;;;;;;;;;5053374;28;20236;-69
2021/05/07 07:14:20;;;;;;;3.83;3.40;;;;;;;;;;5052298;28;20181;-69
2021/05/07 07:16:46;;;;;;;5.83;3.83;;;;;;;;;;5052667;28;20621;-70
2021/05/07 07:19:11;;;;;;;4.90;3.30;;;;;;;;;;5052093;28;20181;-71
2021/05/07 07:21:36;;;;;;;4.90;3.30;;;;;;;;;;5052084;28;20205;-69
2021/05/07 07:24:01;;;;;;;3.53;3.10;;;;;;;;;;5050812;28;20269;-70
2021/05/07 07:26:27;;;;;;;12.30;3.27;;;;;;;;;;5054178;28;20224;-69
2021/05/07 07:28:54;;;;;;;4.23;3.03;;;;;;;;;;5050362;28;20189;-70
2021/05/07 07:31:19;;;;;;;4.00;3.47;;;;;;;;;;5054438;28;20227;-69
2021/05/07 07:33:44;;;;;;;3.93;3.43;;;;;;;;;;5050911;28;20654;-68
2021/05/07 07:36:09;;;;;;;5.10;4.60;;;;;;;;;;5061312;28;20276;-69
2021/05/07 07:38:35;;;;;;;4.47;4.07;;;;;;;;;;5051870;28;20208;-70
2021/05/07 07:41:00;;;;;;;5.40;3.90;;;;;;;;;;5063173;28;20604;-69
2021/05/07 07:43:25;;;;;;;5.03;3.97;;;;;;;;;;5058619;28;20303;-68
2021/05/07 07:45:50;;;;;;;7.10;4.53;;;;;;;;;;5064222;28;20217;-69
2021/05/07 07:48:16;;;;;;;7.07;3.97;;;;;;;;;;5054073;28;20174;-69
2021/05/07 07:50:41;;;;;;;7.37;4.33;;;;;;;;;;5066272;28;20169;-69
2021/05/07 07:53:07;;;;;;;4.90;3.03;;;;;;;;;;5055153;28;20225;-70
2021/05/07 07:55:32;;;;;;;2.83;2.13;;;;;;;;;;5070568;28;20263;-69
2021/05/07 07:57:57;;;;;;;3.67;2.00;;;;;;;;;;5069202;28;20218;-69
2021/05/07 08:00:23;;;;;;;2.57;1.90;;;;;;;;;;5066010;28;20182;-69
2021/05/07 08:02:48;;;;;;;4.90;2.53;;;;;;;;;;5061827;28;20571;-69
2021/05/07 08:05:14;;;;;;;3.57;2.50;;;;;;;;;;5063169;28;20276;-69
2021/05/07 08:07:39;;;;;;;2.87;2.27;;;;;;;;;;5055192;28;20213;-69
2021/05/07 08:10:05;;;;;;;4.23;3.00;;;;;;;;;;5065884;28;20185;-69
2021/05/07 08:12:30;;;;;;;4.33;3.47;;;;;;;;;;5059991;28;20577;-69
2021/05/07 08:14:55;;;;;;;5.23;3.83;;;;;;;;;;5069090;28;20184;-68
2021/05/07 08:17:21;;;;;;;5.60;3.60;;;;;;;;;;5064735;28;20188;-70
2021/05/07 08:19:47;;;;;;;5.17;3.83;;;;;;;;;;5059676;28;20184;-69
2021/05/07 08:22:12;;;;;;;4.77;3.40;;;;;;;;;;5067969;28;20211;-70
2021/05/07 08:24:37;;;;;;;5.10;4.40;;;;;;;;;;5067654;28;20189;-69
2021/05/07 08:27:02;;;;;;;6.37;4.80;;;;;;;;;;5064210;28;20258;-68
2021/05/07 08:29:28;;;;;;;5.03;4.07;;;;;;;;;;5065609;28;20173;-69
2021/05/07 08:31:53;;;;;;;5.97;4.13;;;;;;;;;;5062385;28;20193;-69
2021/05/07 08:34:20;;;;;;;5.97;4.93;;;;;;;;;;5067744;28;20311;-71
2021/05/07 08:36:45;;;;;;;7.00;4.70;;;;;;;;;;5063807;28;20600;-69
2021/05/07 08:39:11;;;;;;;5.53;4.20;;;;;;;;;;5061959;28;20173;-70
2021/05/07 08:41:36;;;;;;;7.43;5.47;;;;;;;;;;5054330;28;20197;-68
2021/05/07 08:44:02;;;;;;;5.97;5.13;;;;;;;;;;5054849;28;20289;-69
2021/05/07 08:46:27;;;;;;;6.03;3.93;;;;;;;;;;5054869;28;20178;-70
2021/05/07 08:48:52;;;;;;;6.27;3.83;;;;;;;;;;5053447;28;20177;-69
2021/05/07 08:51:18;;;;;;;5.23;3.80;;;;;;;;;;5068318;28;20215;-71
2021/05/07 08:53:43;;;;;;;5.20;3.93;;;;;;;;;;5061172;28;20641;-70
2021/05/07 08:56:09;;;;;;;4.63;4.03;;;;;;;;;;5052120;28;20182;-70
2021/05/07 08:58:34;;;;;;;5.57;4.00;;;;;;;;;;5058512;28;20176;-70
2021/05/07 09:00:59;;;;;;;4.40;4.00;;;;;;;;;;5051590;28;20181;-70
2021/05/07 09:03:24;;;;;;;4.37;3.97;;;;;;;;;;5054473;28;20650;-69
2021/05/07 09:05:50;;;;;;;6.73;4.60;;;;;;;;;;5053569;28;20260;-70
2021/05/07 09:08:15;;;;;;;5.47;3.83;;;;;;;;;;5061970;28;20208;-69
2021/05/07 09:10:45;;;;;;;4.60;3.80;;;;;;;;;;5060565;28;20180;-70
2021/05/07 09:13:11;;;;;;;3.03;2.63;;;;;;;;;;5064358;28;20205;-70
2021/05/07 09:15:41;;;;;;;5.53;2.83;;;;;;;;;;5054902;28;20657;-70
2021/05/07 09:18:06;;;;;;;4.27;3.67;;;;;;;;;;5062377;28;20173;-69
2021/05/07 09:20:37;;;;;;;4.13;3.73;;;;;;;;;;5060159;28;20176;-70
2021/05/07 09:23:03;;;;;;;5.00;4.00;;;;;;;;;;5058799;28;20196;-69
2021/05/07 09:25:28;;;;;;;4.60;3.87;;;;;;;;;;5058363;28;20213;-70
2021/05/07 09:28:04;;;;;;;5.17;4.33;;;;;;;;;;5053667;28;20195;-69
2021/05/07 09:30:29;;;;;;;7.17;4.50;;;;;;;;;;5056494;28;20169;-71
2021/05/07 09:32:54;;;;;;;7.07;4.57;;;;;;;;;;5058530;28;20246;-70
2021/05/07 09:35:20;;;;;;;4.37;3.70;;;;;;;;;;5049063;28;20602;-71
2021/05/07 09:37:46;;;;;;;6.13;4.63;;;;;;;;;;5060368;28;20192;-70
2021/05/07 09:40:18;;;;;;;8.23;4.47;;;;;;;;;;5067059;28;20185;-69
2021/05/07 09:42:44;;;;;;;5.27;4.30;;;;;;;;;;5061248;28;20292;-69
2021/05/07 09:45:20;;;;;;;5.23;4.60;;;;;;;;;;5049859;28;20334;-69
2021/05/07 09:47:47;;;;;;;4.60;4.07;;;;;;;;;;5052750;28;20177;-70
2021/05/07 09:50:13;;;;;;;6.93;4.27;;;;;;;;;;5062305;28;20236;-70
2021/05/07 09:52:38;;;;;;;5.10;4.07;;;;;;;;;;5049917;28;20752;-68
2021/05/07 09:55:03;;;;;;;5.03;3.80;;;;;;;;;;5049853;28;20180;-70
2021/05/07 09:57:29;;;;;;;6.67;3.70;;;;;;;;;;5066907;28;20173;-70
2021/05/07 09:59:54;;;;;;;3.20;2.90;;;;;;;;;;5051566;28;20181;-71
2021/05/07 10:02:20;;;;;;;4.40;3.65;;;;;;;;;;5047377;28;20603;-69
2021/05/07 10:04:45;;;;;;;4.78;3.70;;;;;;;;;;5051470;28;20328;-69
2021/05/07 10:07:11;;;;;;;6.47;3.03;;;;;;;;;;5051911;28;20222;-69
2021/05/07 10:09:36;;;;;;;3.57;3.20;;;;;;;;;;5049400;28;20177;-69
2021/05/07 10:12:05;;;;;;;4.33;3.40;;;;;;;;;;5050573;28;20202;-68
2021/05/07 10:14:30;;;;;;;6.07;3.40;;;;;;;;;;5051142;28;20195;-70
2021/05/07 10:16:56;;;;;;;4.87;3.60;;;;;;;;;;5048637;28;20178;-71
2021/05/07 10:19:21;;;;;;;5.00;3.83;;;;;;;;;;5050045;28;20180;-71
2021/05/07 10:21:48;;;;;;;3.77;3.20;;;;;;;;;;5055867;28;20251;-70
2021/05/07 10:24:17;;;;;;;3.90;3.03;;;;;;;;;;5063938;28;20209;-71
2021/05/07 10:26:45;;;;;;;3.27;2.60;;;;;;;;;;5050656;28;20177;-71
2021/05/07 10:29:21;;;;;;;4.60;3.65;;;;;;;;;;5051891;28;20185;-71
2021/05/07 10:31:48;;;;;;;4.63;3.53;;;;;;;;;;5062843;28;20212;-71
2021/05/07 10:34:13;;;;;;;3.35;2.78;;;;;;;;;;5053278;28;20238;-70
2021/05/07 10:36:42;;;;;;;3.30;2.33;;;;;;;;;;5058184;28;20189;-71
2021/05/07 10:39:17;;;;;;;5.05;3.30;;;;;;;;;;5055164;28;20264;-71
2021/05/07 10:41:43;;;;;;;3.80;2.70;;;;;;;;;;5053106;28;20689;-71
2021/05/07 10:44:08;;;;;;;3.97;3.22;;;;;;;;;;5060743;28;20199;-70
2021/05/07 10:46:33;;;;;;;6.03;3.25;;;;;;;;;;5057537;28;20169;-70
2021/05/07 10:48:59;;;;;;;2.60;2.30;;;;;;;;;;5056120;28;20585;-69
2021/05/07 10:51:25;;;;;;;4.20;2.25;;;;;;;;;;5064686;28;20196;-70
2021/05/07 10:53:51;;;;;;;4.00;2.53;;;;;;;;;;5055078;28;20212;-69
2021/05/07 10:56:20;;;;;;;3.25;2.42;;;;;;;;;;5058852;28;20615;-69
2021/05/07 10:58:47;;;;;;;2.35;2.10;;;;;;;;;;5064431;28;20611;-70
2021/05/07 11:01:24;;;;;;;2.55;2.25;;;;;;;;;;5059986;28;20205;-70
2021/05/07 11:03:59;;;;;;;3.40;2.30;;;;;;;;;;5053503;28;20184;-70
2021/05/07 11:06:42;;;;;;;2.88;2.17;;;;;;;;;;5058081;28;20222;-70
2021/05/07 11:09:14;;;;;;;2.67;2.08;;;;;;;;;;5060375;28;20764;-70
2021/05/07 11:11:39;;;;;;;3.08;2.55;;;;;;;;;;5059712;28;20192;-70
2021/05/07 11:14:06;;;;;;;2.40;2.20;;;;;;;;;;5061130;28;20588;-69
2021/05/07 11:16:42;;;;;;;2.80;1.98;;;;;;;;;;5057869;28;20567;-70
2021/05/07 11:19:08;;;;;;;3.55;2.72;;;;;;;;;;5058350;28;20266;-70
2021/05/07 11:21:34;;;;;;;3.35;2.55;;;;;;;;;;5065890;28;20216;-70
2021/05/07 11:24:00;;;;;;;3.22;2.78;;;;;;;;;;5065979;28;20212;-69
2021/05/07 11:26:36;;;;;;;3.53;2.92;;;;;;;;;;5073163;28;20547;-69
2021/05/07 11:29:01;;;;;;;3.90;2.60;;;;;;;;;;5062800;28;20180;-69
2021/05/07 11:31:27;;;;;;;3.20;2.60;;;;;;;;;;5065185;28;20201;-70
2021/05/07 11:33:52;;;;;;;4.35;2.20;;;;;;;;;;5062689;28;20713;-70
2021/05/07 11:36:18;;;;;;;2.88;2.30;;;;;;;;;;5072384;28;20196;-70
2021/05/07 11:38:43;;;;;;;4.50;2.22;;;;;;;;;;5064791;28;20176;-69
2021/05/07 11:41:22;;;;;;;2.88;2.40;;;;;;;;;;5066760;28;20222;-72
2021/05/07 11:43:49;;;;;;;2.60;2.40;;;;;;;;;;5064035;28;20297;-68
2021/05/07 11:46:14;;;;;;;3.50;2.50;;;;;;;;;;5066121;28;20180;-69
2021/05/07 11:48:43;;;;;;;4.35;2.63;;;;;;;;;;5069969;28;20173;-71
2021/05/07 11:51:09;;;;;;;4.93;2.97;;;;;;;;;;5067443;28;20170;-70
2021/05/07 11:53:34;;;;;;;4.43;2.97;;;;;;;;;;5065277;28;20684;-69
2021/05/07 11:56:00;;;;;;;4.85;3.42;;;;;;;;;;5064216;28;20493;-71
2021/05/07 11:58:32;;;;;;;5.30;3.45;;;;;;;;;;5059237;28;20235;-69
2021/05/07 12:00:57;;;;;;;5.28;4.15;;;;;;;;;;5058821;28;20719;-70
2021/05/07 12:03:25;;;;;;;7.85;3.58;;;;;;;;;;5055623;28;20204;-70
2021/05/07 12:05:50;;;;;;;4.63;3.65;;;;;;;;;;5057671;28;20181;-71
2021/05/07 12:08:25;;;;;;;3.92;3.42;;;;;;;;;;5067437;28;20180;-70
2021/05/07 12:10:50;;;;;;;4.07;3.30;;;;;;;;;;5057952;28;20176;-70
2021/05/07 12:13:24;;;;;;;4.25;3.38;;;;;;;;;;5070514;28;20280;-70
2021/05/07 12:15:50;;;;;;;3.63;3.28;;;;;;;;;;5061498;28;20179;-71
2021/05/07 12:18:19;;;;;;;4.43;3.10;;;;;;;;;;5064166;28;20260;-70
2021/05/07 12:20:49;;;;;;;2.97;2.63;;;;;;;;;;5055301;28;20177;-70
2021/05/07 12:23:14;;;;;;;6.32;3.17;;;;;;;;;;5050826;28;20219;-70
2021/05/07 12:25:41;;;;;;;4.30;3.08;;;;;;;;;;5052072;28;20182;-70
2021/05/07 12:28:12;;;;;;;4.82;3.38;;;;;;;;;;5058128;28;20689;-71
2021/05/07 12:30:37;;;;;;;7.47;3.60;;;;;;;;;;5052005;28;20989;-70
2021/05/07 12:33:04;;;;;;;6.63;3.90;;;;;;;;;;5051805;28;20198;-70
2021/05/07 12:35:42;;;;;;;4.70;3.75;;;;;;;;;;5055169;28;20177;-70
2021/05/07 12:38:29;;;;;;;4.57;3.67;;;;;;;;;;5051881;28;20564;-69
2021/05/07 12:41:02;;;;;;;3.65;3.03;;;;;;;;;;5052722;28;20565;-70
2021/05/07 12:43:32;;;;;;;4.85;2.97;;;;;;;;;;5055031;28;20646;-70
2021/05/07 12:45:57;;;;;;;3.15;2.85;;;;;;;;;;5057085;28;20184;-71
2021/05/07 12:48:22;;;;;;;4.85;3.00;;;;;;;;;;5056968;28;20662;-69
2021/05/07 12:50:47;;;;;;;3.85;3.15;;;;;;;;;;5053804;28;20651;-70
2021/05/07 12:53:20;;;;;;;4.70;2.67;;;;;;;;;;5060156;28;20197;-70
2021/05/07 12:55:45;;;;;;;3.55;3.10;;;;;;;;;;5053384;28;20174;-70
2021/05/07 12:58:11;;;;;;;7.07;4.40;;;;;;;;;;5058318;28;20169;-68
2021/05/07 13:00:37;;;;;;;6.70;4.07;;;;;;;;;;5059715;28;20243;-70
2021/05/07 13:03:03;;;;;;;5.20;3.72;;;;;;;;;;5054142;28;20217;-70
2021/05/07 13:05:28;;;;;;;4.47;3.45;;;;;;;;;;5053053;28;20201;-71
2021/05/07 13:07:53;;;;;;;5.07;3.50;;;;;;;;;;5060003;28;20270;-71
2021/05/07 13:10:18;;;;;;;5.18;3.90;;;;;;;;;;5053176;28;20437;-70
2021/05/07 13:12:44;;;;;;;5.90;3.83;;;;;;;;;;5052508;28;20202;-70
2021/05/07 13:15:09;;;;;;;5.95;3.92;;;;;;;;;;5059963;28;20219;-71
2021/05/07 13:17:35;;;;;;;4.43;3.40;;;;;;;;;;5065520;28;20528;-69
2021/05/07 13:20:00;;;;;;;4.03;3.40;;;;;;;;;;5058486;28;20189;-70
2021/05/07 13:22:26;;;;;;;4.65;3.78;;;;;;;;;;5061234;28;20197;-70
2021/05/07 13:24:52;;;;;;;5.63;2.97;;;;;;;;;;5054141;28;20209;-70
2021/05/07 13:27:17;;;;;;;5.40;3.38;;;;;;;;;;5053527;28;20663;-70
2021/05/07 13:29:42;;;;;;;3.50;3.20;;;;;;;;;;5060881;28;20181;-73
2021/05/07 13:32:07;;;;;;;3.93;3.50;;;;;;;;;;5056049;28;20281;-69
2021/05/07 13:34:32;;;;;;;5.68;4.35;;;;;;;;;;5056634;28;20426;-71
2021/05/07 13:36:57;;;;;;;5.65;3.92;;;;;;;;;;5057397;28;20663;-71
2021/05/07 13:39:24;;;;;;;4.88;3.50;;;;;;;;;;5054749;28;20185;-72
2021/05/07 13:41:49;;;;;;;4.15;3.35;;;;;;;;;;5057504;28;20185;-71
2021/05/07 13:44:14;;;;;;;4.70;3.00;;;;;;;;;;5058807;28;20206;-70
2021/05/07 13:46:39;;;;;;;3.97;3.08;;;;;;;;;;5058914;28;20544;-73
2021/05/07 13:49:05;;;;;;;6.22;3.70;;;;;;;;;;5063536;28;20197;-70
2021/05/07 13:51:31;;;;;;;4.50;4.10;;;;;;;;;;5065129;28;20300;-70
2021/05/07 13:53:56;;;;;;;4.53;4.05;;;;;;;;;;5060763;28;20443;-70
2021/05/07 13:56:21;;;;;;;5.88;3.72;;;;;;;;;;5061550;28;20560;-71
2021/05/07 13:58:46;;;;;;;3.85;3.55;;;;;;;;;;5057314;28;20203;-71
2021/05/07 14:01:11;;;;;;;4.73;3.47;;;;;;;;;;5061233;28;20225;-71
2021/05/07 14:03:37;;;;;;;4.00;3.38;;;;;;;;;;5056191;28;20441;-71
2021/05/07 14:06:02;;;;;;;4.13;2.85;;;;;;;;;;5067428;28;20188;-70
2021/05/07 14:08:27;;;;;;;5.15;3.95;;;;;;;;;;5068092;28;20260;-71
2021/05/07 14:10:52;;;;;;;3.95;3.40;;;;;;;;;;5054558;28;20181;-70
2021/05/07 14:13:18;;;;;;;3.63;3.33;;;;;;;;;;5061372;28;20658;-70
2021/05/07 14:15:43;;;;;;;4.97;3.90;;;;;;;;;;5059731;28;20229;-70
2021/05/07 14:18:09;;;;;;;5.15;4.55;;;;;;;;;;5055380;28;20268;-70
2021/05/07 14:20:34;;;;;;;5.85;4.45;;;;;;;;;;5065322;28;20189;-72
2021/05/07 14:22:59;;;;;;;5.72;4.70;;;;;;;;;;5060708;28;20200;-70
2021/05/07 14:25:25;;;;;;;5.38;4.82;;;;;;;;;;5057003;28;20202;-71
2021/05/07 14:27:50;;;;;;;5.53;4.65;;;;;;;;;;5052734;28;20185;-71
2021/05/07 14:30:16;;;;;;;4.60;4.10;;;;;;;;;;5051390;28;20178;-70
2021/05/07 14:32:42;;;;;;;5.05;4.55;;;;;;;;;;5059643;28;20570;-70
2021/05/07 14:35:08;;;;;;;4.13;3.63;;;;;;;;;;5056063;28;20206;-70